Terminal Aerodrome Forecast
Issued by NWS Shreveport, LA

Home | Current Version | Previous Version | Text Only | Print | Product List | Glossary On
Versions: 1 2 3 4 5 6 7 8 9 10 11 12 13 14 15 16 17 18 19 20
979
FTUS44 KSHV 261123
TAFLFK
TAF
KLFK 261123Z 2612/2712 05003KT P6SM SCT050 SCT100 BKN250
     FM261600 08006KT P6SM SCT040 SCT100 BKN250
     FM270000 07003KT P6SM FEW050 SCT150 BKN250
     FM270300 07003KT P6SM BKN040 BKN150 OVC250
     FM270900 00000KT 3SM BR BKN008 OVC030=

USA.gov is the U.S. government's official web portal to all federal, state and local government web resources and services.